sensor_id;sensor_type;location;lat;lon;timestamp;P1;durP1;ratioP1;P2;durP2;ratioP2
39584;SDS011;25278;53.674;10.014;2022-12-10T00:01:31;53.42;;;34.92;;
39584;SDS011;25278;53.674;10.014;2022-12-10T00:03:58;47.90;;;33.22;;
39584;SDS011;25278;53.674;10.014;2022-12-10T00:06:25;52.05;;;35.70;;
39584;SDS011;25278;53.674;10.014;2022-12-10T00:08:52;55.45;;;36.22;;
39584;SDS011;25278;53.674;10.014;2022-12-10T00:11:19;51.92;;;34.75;;
39584;SDS011;25278;53.674;10.014;2022-12-10T00:13:46;53.80;;;34.90;;
39584;SDS011;25278;53.674;10.014;2022-12-10T00:16:13;49.88;;;33.42;;
39584;SDS011;25278;53.674;10.014;2022-12-10T00:18:40;50.80;;;35.47;;
39584;SDS011;25278;53.674;10.014;2022-12-10T00:21:07;49.95;;;34.88;;
39584;SDS011;25278;53.674;10.014;2022-12-10T00:23:35;51.38;;;35.28;;
39584;SDS011;25278;53.674;10.014;2022-12-10T00:26:09;50.45;;;35.17;;
39584;SDS011;25278;53.674;10.014;2022-12-10T00:28:36;49.92;;;34.40;;
39584;SDS011;25278;53.674;10.014;2022-12-10T00:31:03;50.85;;;35.00;;
39584;SDS011;25278;53.674;10.014;2022-12-10T00:33:34;56.00;;;34.45;;
39584;SDS011;25278;53.674;10.014;2022-12-10T00:36:04;52.25;;;34.40;;
39584;SDS011;25278;53.674;10.014;2022-12-10T00:38:31;54.35;;;35.20;;
39584;SDS011;25278;53.674;10.014;2022-12-10T00:40:57;57.28;;;35.20;;
39584;SDS011;25278;53.674;10.014;2022-12-10T00:43:22;54.05;;;35.30;;
39584;SDS011;25278;53.674;10.014;2022-12-10T00:45:48;54.70;;;33.88;;
39584;SDS011;25278;53.674;10.014;2022-12-10T00:48:13;47.90;;;31.95;;
39584;SDS011;25278;53.674;10.014;2022-12-10T00:50:39;52.03;;;32.47;;
39584;SDS011;25278;53.674;10.014;2022-12-10T00:53:04;48.85;;;32.03;;
39584;SDS011;25278;53.674;10.014;2022-12-10T00:55:30;46.03;;;31.67;;
39584;SDS011;25278;53.674;10.014;2022-12-10T00:57:55;49.15;;;31.45;;
39584;SDS011;25278;53.674;10.014;2022-12-10T01:00:21;47.55;;;31.45;;
39584;SDS011;25278;53.674;10.014;2022-12-10T01:02:46;49.63;;;33.55;;
39584;SDS011;25278;53.674;10.014;2022-12-10T01:05:12;44.03;;;30.40;;
39584;SDS011;25278;53.674;10.014;2022-12-10T01:07:37;44.30;;;31.05;;
39584;SDS011;25278;53.674;10.014;2022-12-10T01:10:03;43.90;;;31.50;;
39584;SDS011;25278;53.674;10.014;2022-12-10T01:12:29;45.83;;;31.42;;
39584;SDS011;25278;53.674;10.014;2022-12-10T01:14:54;45.08;;;30.50;;
39584;SDS011;25278;53.674;10.014;2022-12-10T01:17:20;47.28;;;31.92;;
39584;SDS011;25278;53.674;10.014;2022-12-10T01:19:46;48.35;;;31.42;;
39584;SDS011;25278;53.674;10.014;2022-12-10T01:22:12;43.35;;;29.73;;
39584;SDS011;25278;53.674;10.014;2022-12-10T01:24:37;44.72;;;29.88;;
39584;SDS011;25278;53.674;10.014;2022-12-10T01:27:03;45.33;;;30.48;;
39584;SDS011;25278;53.674;10.014;2022-12-10T01:29:28;42.78;;;29.83;;
39584;SDS011;25278;53.674;10.014;2022-12-10T01:31:55;44.72;;;30.23;;
39584;SDS011;25278;53.674;10.014;2022-12-10T01:34:21;43.10;;;29.20;;
39584;SDS011;25278;53.674;10.014;2022-12-10T01:36:49;42.40;;;28.90;;
39584;SDS011;25278;53.674;10.014;2022-12-10T01:39:16;43.53;;;28.80;;
39584;SDS011;25278;53.674;10.014;2022-12-10T01:41:51;38.78;;;27.30;;
39584;SDS011;25278;53.674;10.014;2022-12-10T01:46:46;37.35;;;25.50;;
39584;SDS011;25278;53.674;10.014;2022-12-10T01:49:15;39.00;;;26.10;;
39584;SDS011;25278;53.674;10.014;2022-12-10T01:51:43;30.70;;;22.58;;
39584;SDS011;25278;53.674;10.014;2022-12-10T01:54:11;29.05;;;20.23;;
39584;SDS011;25278;53.674;10.014;2022-12-10T01:56:50;28.05;;;19.50;;
39584;SDS011;25278;53.674;10.014;2022-12-10T01:59:19;27.58;;;17.77;;
39584;SDS011;25278;53.674;10.014;2022-12-10T02:01:51;25.60;;;18.73;;
39584;SDS011;25278;53.674;10.014;2022-12-10T02:07:20;23.13;;;16.63;;
39584;SDS011;25278;53.674;10.014;2022-12-10T02:15:12;24.35;;;17.05;;
39584;SDS011;25278;53.674;10.014;2022-12-10T02:17:45;18.27;;;13.68;;
39584;SDS011;25278;53.674;10.014;2022-12-10T02:20:24;19.13;;;13.90;;
39584;SDS011;25278;53.674;10.014;2022-12-10T02:25:32;20.45;;;14.15;;
39584;SDS011;25278;53.674;10.014;2022-12-10T02:28:31;19.90;;;14.43;;
39584;SDS011;25278;53.674;10.014;2022-12-10T02:31:07;18.77;;;14.52;;
39584;SDS011;25278;53.674;10.014;2022-12-10T02:33:37;20.67;;;14.57;;
39584;SDS011;25278;53.674;10.014;2022-12-10T02:36:07;15.68;;;12.23;;
39584;SDS011;25278;53.674;10.014;2022-12-10T02:38:36;16.35;;;12.38;;
39584;SDS011;25278;53.674;10.014;2022-12-10T02:41:05;17.00;;;12.20;;
39584;SDS011;25278;53.674;10.014;2022-12-10T02:43:37;17.83;;;12.38;;
39584;SDS011;25278;53.674;10.014;2022-12-10T02:46:03;13.98;;;11.10;;
39584;SDS011;25278;53.674;10.014;2022-12-10T02:48:30;15.70;;;12.27;;
39584;SDS011;25278;53.674;10.014;2022-12-10T02:50:57;16.70;;;12.95;;
39584;SDS011;25278;53.674;10.014;2022-12-10T02:53:23;14.90;;;11.98;;
39584;SDS011;25278;53.674;10.014;2022-12-10T03:01:12;14.23;;;10.95;;
39584;SDS011;25278;53.674;10.014;2022-12-10T03:03:52;14.70;;;10.70;;
39584;SDS011;25278;53.674;10.014;2022-12-10T03:06:32;16.65;;;11.00;;
39584;SDS011;25278;53.674;10.014;2022-12-10T03:09:33;14.95;;;11.30;;
39584;SDS011;25278;53.674;10.014;2022-12-10T03:12:07;16.35;;;12.32;;
39584;SDS011;25278;53.674;10.014;2022-12-10T03:14:40;18.27;;;13.05;;
39584;SDS011;25278;53.674;10.014;2022-12-10T03:17:07;16.23;;;12.55;;
39584;SDS011;25278;53.674;10.014;2022-12-10T03:19:37;17.77;;;12.55;;
39584;SDS011;25278;53.674;10.014;2022-12-10T03:22:07;16.25;;;12.80;;
39584;SDS011;25278;53.674;10.014;2022-12-10T03:24:37;17.55;;;12.50;;
39584;SDS011;25278;53.674;10.014;2022-12-10T03:27:04;17.42;;;12.52;;
39584;SDS011;25278;53.674;10.014;2022-12-10T03:29:33;15.60;;;12.13;;
39584;SDS011;25278;53.674;10.014;2022-12-10T03:32:06;17.67;;;13.43;;
39584;SDS011;25278;53.674;10.014;2022-12-10T03:34:32;16.70;;;12.48;;
39584;SDS011;25278;53.674;10.014;2022-12-10T03:36:59;15.05;;;11.77;;
39584;SDS011;25278;53.674;10.014;2022-12-10T03:39:25;16.27;;;12.60;;
39584;SDS011;25278;53.674;10.014;2022-12-10T03:41:52;15.70;;;12.27;;
39584;SDS011;25278;53.674;10.014;2022-12-10T03:44:28;16.17;;;12.10;;
39584;SDS011;25278;53.674;10.014;2022-12-10T03:46:58;17.20;;;12.93;;
39584;SDS011;25278;53.674;10.014;2022-12-10T03:49:24;17.20;;;13.45;;
39584;SDS011;25278;53.674;10.014;2022-12-10T03:51:50;19.58;;;14.45;;
39584;SDS011;25278;53.674;10.014;2022-12-10T03:54:15;19.00;;;14.45;;
39584;SDS011;25278;53.674;10.014;2022-12-10T03:56:41;19.50;;;14.07;;
39584;SDS011;25278;53.674;10.014;2022-12-10T03:59:07;18.27;;;13.77;;
39584;SDS011;25278;53.674;10.014;2022-12-10T04:01:32;17.10;;;12.73;;
39584;SDS011;25278;53.674;10.014;2022-12-10T04:03:58;16.50;;;13.10;;
39584;SDS011;25278;53.674;10.014;2022-12-10T04:06:23;16.50;;;12.90;;
39584;SDS011;25278;53.674;10.014;2022-12-10T04:08:49;17.85;;;12.80;;
39584;SDS011;25278;53.674;10.014;2022-12-10T04:11:17;17.55;;;13.70;;
39584;SDS011;25278;53.674;10.014;2022-12-10T04:13:43;18.60;;;13.85;;
39584;SDS011;25278;53.674;10.014;2022-12-10T04:16:28;17.27;;;13.15;;
39584;SDS011;25278;53.674;10.014;2022-12-10T04:18:57;15.80;;;12.32;;
39584;SDS011;25278;53.674;10.014;2022-12-10T04:21:49;16.90;;;12.70;;
39584;SDS011;25278;53.674;10.014;2022-12-10T04:24:34;15.48;;;11.90;;
39584;SDS011;25278;53.674;10.014;2022-12-10T04:27:20;17.33;;;13.43;;
39584;SDS011;25278;53.674;10.014;2022-12-10T04:29:52;16.60;;;12.40;;
39584;SDS011;25278;53.674;10.014;2022-12-10T04:32:19;14.80;;;12.35;;
39584;SDS011;25278;53.674;10.014;2022-12-10T04:34:45;16.42;;;13.07;;
39584;SDS011;25278;53.674;10.014;2022-12-10T04:37:11;17.05;;;12.93;;
39584;SDS011;25278;53.674;10.014;2022-12-10T04:39:37;17.15;;;13.13;;
39584;SDS011;25278;53.674;10.014;2022-12-10T04:42:03;16.27;;;13.00;;
39584;SDS011;25278;53.674;10.014;2022-12-10T04:44:29;17.65;;;14.15;;
39584;SDS011;25278;53.674;10.014;2022-12-10T04:46:55;19.70;;;14.55;;
39584;SDS011;25278;53.674;10.014;2022-12-10T04:49:20;17.40;;;13.27;;
39584;SDS011;25278;53.674;10.014;2022-12-10T04:51:47;17.90;;;13.27;;
39584;SDS011;25278;53.674;10.014;2022-12-10T04:54:13;17.08;;;13.52;;
39584;SDS011;25278;53.674;10.014;2022-12-10T04:56:39;16.33;;;12.25;;
39584;SDS011;25278;53.674;10.014;2022-12-10T04:59:05;16.27;;;12.48;;
39584;SDS011;25278;53.674;10.014;2022-12-10T05:01:31;15.80;;;12.60;;
39584;SDS011;25278;53.674;10.014;2022-12-10T05:04:01;18.95;;;13.52;;
39584;SDS011;25278;53.674;10.014;2022-12-10T05:06:29;15.57;;;12.65;;
39584;SDS011;25278;53.674;10.014;2022-12-10T05:08:55;14.75;;;11.60;;
39584;SDS011;25278;53.674;10.014;2022-12-10T05:11:24;16.17;;;12.27;;
39584;SDS011;25278;53.674;10.014;2022-12-10T05:13:52;16.48;;;12.95;;
39584;SDS011;25278;53.674;10.014;2022-12-10T05:16:19;15.13;;;11.98;;
39584;SDS011;25278;53.674;10.014;2022-12-10T05:18:45;16.08;;;12.38;;
39584;SDS011;25278;53.674;10.014;2022-12-10T05:21:12;18.00;;;13.13;;
39584;SDS011;25278;53.674;10.014;2022-12-10T05:23:41;17.20;;;12.25;;
39584;SDS011;25278;53.674;10.014;2022-12-10T05:26:14;14.97;;;12.37;;
39584;SDS011;25278;53.674;10.014;2022-12-10T05:28:49;16.08;;;13.60;;
39584;SDS011;25278;53.674;10.014;2022-12-10T05:31:21;17.48;;;13.10;;
39584;SDS011;25278;53.674;10.014;2022-12-10T05:33:49;15.13;;;12.02;;
39584;SDS011;25278;53.674;10.014;2022-12-10T05:36:16;13.63;;;11.35;;
39584;SDS011;25278;53.674;10.014;2022-12-10T05:38:43;16.02;;;12.02;;
39584;SDS011;25278;53.674;10.014;2022-12-10T05:41:13;15.23;;;12.00;;
39584;SDS011;25278;53.674;10.014;2022-12-10T05:43:44;14.43;;;12.10;;
39584;SDS011;25278;53.674;10.014;2022-12-10T05:46:11;14.27;;;11.32;;
39584;SDS011;25278;53.674;10.014;2022-12-10T05:48:38;15.55;;;12.48;;
39584;SDS011;25278;53.674;10.014;2022-12-10T05:51:05;16.73;;;12.45;;
39584;SDS011;25278;53.674;10.014;2022-12-10T05:53:32;15.32;;;12.02;;
39584;SDS011;25278;53.674;10.014;2022-12-10T05:56:01;16.25;;;10.73;;
39584;SDS011;25278;53.674;10.014;2022-12-10T05:58:31;14.15;;;11.52;;
39584;SDS011;25278;53.674;10.014;2022-12-10T06:00:57;15.13;;;12.15;;
39584;SDS011;25278;53.674;10.014;2022-12-10T06:03:23;14.60;;;11.43;;
39584;SDS011;25278;53.674;10.014;2022-12-10T06:05:51;16.45;;;12.63;;
39584;SDS011;25278;53.674;10.014;2022-12-10T06:08:16;15.63;;;11.27;;
39584;SDS011;25278;53.674;10.014;2022-12-10T06:10:42;14.25;;;11.90;;
39584;SDS011;25278;53.674;10.014;2022-12-10T06:13:07;17.02;;;12.20;;
39584;SDS011;25278;53.674;10.014;2022-12-10T06:15:33;14.32;;;11.50;;
39584;SDS011;25278;53.674;10.014;2022-12-10T06:17:59;12.85;;;11.40;;
39584;SDS011;25278;53.674;10.014;2022-12-10T06:20:25;13.88;;;11.15;;
39584;SDS011;25278;53.674;10.014;2022-12-10T06:22:50;14.02;;;11.02;;
39584;SDS011;25278;53.674;10.014;2022-12-10T06:25:16;16.15;;;12.45;;
39584;SDS011;25278;53.674;10.014;2022-12-10T06:27:42;16.95;;;11.95;;
39584;SDS011;25278;53.674;10.014;2022-12-10T06:30:08;15.13;;;11.80;;
39584;SDS011;25278;53.674;10.014;2022-12-10T06:32:34;14.65;;;11.90;;
39584;SDS011;25278;53.674;10.014;2022-12-10T06:35:00;13.88;;;11.65;;
39584;SDS011;25278;53.674;10.014;2022-12-10T06:37:26;13.93;;;11.45;;
39584;SDS011;25278;53.674;10.014;2022-12-10T06:39:52;14.43;;;12.40;;
39584;SDS011;25278;53.674;10.014;2022-12-10T06:42:18;16.08;;;12.70;;
39584;SDS011;25278;53.674;10.014;2022-12-10T06:44:45;15.25;;;12.20;;
39584;SDS011;25278;53.674;10.014;2022-12-10T06:47:10;16.55;;;12.65;;
39584;SDS011;25278;53.674;10.014;2022-12-10T06:49:36;15.00;;;12.23;;
39584;SDS011;25278;53.674;10.014;2022-12-10T06:52:02;15.80;;;12.02;;
39584;SDS011;25278;53.674;10.014;2022-12-10T06:54:27;13.50;;;11.23;;
39584;SDS011;25278;53.674;10.014;2022-12-10T06:56:53;16.73;;;12.75;;
39584;SDS011;25278;53.674;10.014;2022-12-10T06:59:19;16.23;;;12.88;;
39584;SDS011;25278;53.674;10.014;2022-12-10T07:01:45;15.13;;;12.32;;
39584;SDS011;25278;53.674;10.014;2022-12-10T07:04:12;17.23;;;14.00;;
39584;SDS011;25278;53.674;10.014;2022-12-10T07:06:37;19.02;;;14.60;;
39584;SDS011;25278;53.674;10.014;2022-12-10T07:09:03;21.98;;;16.98;;
39584;SDS011;25278;53.674;10.014;2022-12-10T07:11:29;22.00;;;17.33;;
39584;SDS011;25278;53.674;10.014;2022-12-10T07:13:56;18.90;;;15.30;;
39584;SDS011;25278;53.674;10.014;2022-12-10T07:16:23;21.05;;;15.95;;
39584;SDS011;25278;53.674;10.014;2022-12-10T07:18:50;33.00;;;18.02;;
39584;SDS011;25278;53.674;10.014;2022-12-10T07:21:23;18.88;;;15.82;;
39584;SDS011;25278;53.674;10.014;2022-12-10T07:23:57;22.00;;;16.35;;
39584;SDS011;25278;53.674;10.014;2022-12-10T07:26:24;21.55;;;15.35;;
39584;SDS011;25278;53.674;10.014;2022-12-10T07:28:50;20.85;;;15.93;;
39584;SDS011;25278;53.674;10.014;2022-12-10T07:31:16;20.33;;;16.20;;
39584;SDS011;25278;53.674;10.014;2022-12-10T07:33:42;20.50;;;16.02;;
39584;SDS011;25278;53.674;10.014;2022-12-10T07:36:09;21.15;;;16.75;;
39584;SDS011;25278;53.674;10.014;2022-12-10T07:38:35;23.35;;;17.88;;
39584;SDS011;25278;53.674;10.014;2022-12-10T07:41:05;20.38;;;16.80;;
39584;SDS011;25278;53.674;10.014;2022-12-10T07:43:35;22.63;;;17.10;;
39584;SDS011;25278;53.674;10.014;2022-12-10T07:46:05;22.48;;;17.58;;
39584;SDS011;25278;53.674;10.014;2022-12-10T07:48:36;22.92;;;18.40;;
39584;SDS011;25278;53.674;10.014;2022-12-10T07:51:03;24.20;;;18.27;;
39584;SDS011;25278;53.674;10.014;2022-12-10T07:53:29;19.27;;;16.75;;
39584;SDS011;25278;53.674;10.014;2022-12-10T07:55:55;23.52;;;17.92;;
39584;SDS011;25278;53.674;10.014;2022-12-10T07:58:20;22.10;;;16.30;;
39584;SDS011;25278;53.674;10.014;2022-12-10T08:00:46;17.52;;;14.98;;
39584;SDS011;25278;53.674;10.014;2022-12-10T08:03:12;26.25;;;20.10;;
39584;SDS011;25278;53.674;10.014;2022-12-10T08:05:38;23.50;;;18.00;;
39584;SDS011;25278;53.674;10.014;2022-12-10T08:08:04;20.67;;;16.52;;
39584;SDS011;25278;53.674;10.014;2022-12-10T08:10:30;23.23;;;15.93;;
39584;SDS011;25278;53.674;10.014;2022-12-10T08:12:56;22.17;;;14.98;;
39584;SDS011;25278;53.674;10.014;2022-12-10T08:15:21;19.23;;;14.90;;
39584;SDS011;25278;53.674;10.014;2022-12-10T08:17:47;21.08;;;16.23;;
39584;SDS011;25278;53.674;10.014;2022-12-10T08:20:13;19.63;;;14.63;;
39584;SDS011;25278;53.674;10.014;2022-12-10T08:22:38;19.23;;;14.80;;
39584;SDS011;25278;53.674;10.014;2022-12-10T08:25:04;20.27;;;15.80;;
39584;SDS011;25278;53.674;10.014;2022-12-10T08:27:30;21.75;;;16.85;;
39584;SDS011;25278;53.674;10.014;2022-12-10T08:29:56;21.15;;;15.48;;
39584;SDS011;25278;53.674;10.014;2022-12-10T08:32:21;21.15;;;16.08;;
39584;SDS011;25278;53.674;10.014;2022-12-10T08:34:47;19.60;;;15.07;;
39584;SDS011;25278;53.674;10.014;2022-12-10T08:37:13;19.20;;;14.43;;
39584;SDS011;25278;53.674;10.014;2022-12-10T08:39:39;21.88;;;16.40;;
39584;SDS011;25278;53.674;10.014;2022-12-10T08:42:05;19.27;;;13.65;;
39584;SDS011;25278;53.674;10.014;2022-12-10T08:44:31;18.67;;;13.30;;
39584;SDS011;25278;53.674;10.014;2022-12-10T08:46:56;21.13;;;14.40;;
39584;SDS011;25278;53.674;10.014;2022-12-10T08:49:22;16.65;;;13.77;;
39584;SDS011;25278;53.674;10.014;2022-12-10T08:51:47;20.13;;;14.82;;
39584;SDS011;25278;53.674;10.014;2022-12-10T08:54:13;19.30;;;14.65;;
39584;SDS011;25278;53.674;10.014;2022-12-10T08:56:38;15.60;;;12.52;;
39584;SDS011;25278;53.674;10.014;2022-12-10T08:59:04;16.00;;;13.32;;
39584;SDS011;25278;53.674;10.014;2022-12-10T09:01:31;17.00;;;13.48;;
39584;SDS011;25278;53.674;10.014;2022-12-10T09:03:56;17.77;;;12.80;;
39584;SDS011;25278;53.674;10.014;2022-12-10T09:06:22;16.73;;;12.30;;
39584;SDS011;25278;53.674;10.014;2022-12-10T09:08:49;18.77;;;13.52;;
39584;SDS011;25278;53.674;10.014;2022-12-10T09:11:23;18.35;;;13.45;;
39584;SDS011;25278;53.674;10.014;2022-12-10T09:13:53;16.30;;;12.50;;
39584;SDS011;25278;53.674;10.014;2022-12-10T09:16:18;18.02;;;14.80;;
39584;SDS011;25278;53.674;10.014;2022-12-10T09:18:44;21.48;;;15.13;;
39584;SDS011;25278;53.674;10.014;2022-12-10T09:21:11;19.13;;;14.63;;
39584;SDS011;25278;53.674;10.014;2022-12-10T09:23:41;19.38;;;14.93;;
39584;SDS011;25278;53.674;10.014;2022-12-10T09:26:09;19.52;;;15.45;;
39584;SDS011;25278;53.674;10.014;2022-12-10T09:28:36;22.00;;;15.85;;
39584;SDS011;25278;53.674;10.014;2022-12-10T09:31:03;20.65;;;15.77;;
39584;SDS011;25278;53.674;10.014;2022-12-10T09:33:29;21.30;;;15.88;;
39584;SDS011;25278;53.674;10.014;2022-12-10T09:35:56;18.20;;;14.50;;
39584;SDS011;25278;53.674;10.014;2022-12-10T09:38:22;19.67;;;14.60;;
39584;SDS011;25278;53.674;10.014;2022-12-10T09:41:10;20.40;;;15.07;;
39584;SDS011;25278;53.674;10.014;2022-12-10T09:43:45;20.20;;;15.40;;
39584;SDS011;25278;53.674;10.014;2022-12-10T09:46:35;18.33;;;13.48;;
39584;SDS011;25278;53.674;10.014;2022-12-10T09:52:22;15.38;;;12.70;;
39584;SDS011;25278;53.674;10.014;2022-12-10T09:54:52;17.13;;;13.10;;
39584;SDS011;25278;53.674;10.014;2022-12-10T10:00:06;15.38;;;12.23;;
39584;SDS011;25278;53.674;10.014;2022-12-10T10:02:35;16.50;;;12.93;;
39584;SDS011;25278;53.674;10.014;2022-12-10T10:07:33;16.67;;;13.48;;
39584;SDS011;25278;53.674;10.014;2022-12-10T10:10:35;18.17;;;14.45;;
39584;SDS011;25278;53.674;10.014;2022-12-10T10:13:15;18.33;;;13.48;;
39584;SDS011;25278;53.674;10.014;2022-12-10T10:15:54;16.73;;;12.52;;
39584;SDS011;25278;53.674;10.014;2022-12-10T10:18:35;17.23;;;12.32;;
39584;SDS011;25278;53.674;10.014;2022-12-10T10:21:20;14.43;;;12.20;;
39584;SDS011;25278;53.674;10.014;2022-12-10T10:23:48;14.80;;;12.13;;
39584;SDS011;25278;53.674;10.014;2022-12-10T10:26:15;16.27;;;12.80;;
39584;SDS011;25278;53.674;10.014;2022-12-10T10:28:42;13.05;;;11.63;;
39584;SDS011;25278;53.674;10.014;2022-12-10T10:31:18;16.08;;;11.57;;
39584;SDS011;25278;53.674;10.014;2022-12-10T10:33:48;15.27;;;11.45;;
39584;SDS011;25278;53.674;10.014;2022-12-10T10:36:15;14.70;;;12.13;;
39584;SDS011;25278;53.674;10.014;2022-12-10T10:38:43;15.65;;;12.20;;
39584;SDS011;25278;53.674;10.014;2022-12-10T10:41:13;16.17;;;12.80;;
39584;SDS011;25278;53.674;10.014;2022-12-10T10:43:40;16.60;;;14.20;;
39584;SDS011;25278;53.674;10.014;2022-12-10T10:46:15;14.98;;;11.65;;
39584;SDS011;25278;53.674;10.014;2022-12-10T10:48:45;15.25;;;12.57;;
39584;SDS011;25278;53.674;10.014;2022-12-10T10:53:44;15.80;;;12.88;;
39584;SDS011;25278;53.674;10.014;2022-12-10T10:56:18;15.95;;;13.07;;
39584;SDS011;25278;53.674;10.014;2022-12-10T10:58:49;15.05;;;12.40;;
39584;SDS011;25278;53.674;10.014;2022-12-10T11:04:17;12.55;;;10.27;;
39584;SDS011;25278;53.674;10.014;2022-12-10T11:07:05;12.75;;;;;
39584;SDS011;25278;53.674;10.014;2022-12-10T11:09:57;14.00;;;11.38;;
39584;SDS011;25278;53.674;10.014;2022-12-10T11:12:28;14.00;;;11.15;;
39584;SDS011;25278;53.674;10.014;2022-12-10T11:14:57;14.45;;;11.15;;
39584;SDS011;25278;53.674;10.014;2022-12-10T11:17:25;13.00;;;10.95;;
39584;SDS011;25278;53.674;10.014;2022-12-10T11:20:12;13.88;;;10.68;;
39584;SDS011;25278;53.674;10.014;2022-12-10T11:22:48;14.40;;;11.55;;
39584;SDS011;25278;53.674;10.014;2022-12-10T11:25:19;13.55;;;11.15;;
39584;SDS011;25278;53.674;10.014;2022-12-10T11:28:09;15.93;;;11.88;;
39584;SDS011;25278;53.674;10.014;2022-12-10T11:30:50;13.65;;;11.15;;
39584;SDS011;25278;53.674;10.014;2022-12-10T11:33:30;15.15;;;11.02;;
39584;SDS011;25278;53.674;10.014;2022-12-10T11:36:21;16.00;;;12.27;;
39584;SDS011;25278;53.674;10.014;2022-12-10T11:39:14;13.52;;;11.18;;
39584;SDS011;25278;53.674;10.014;2022-12-10T11:44:43;14.27;;;10.73;;
39584;SDS011;25278;53.674;10.014;2022-12-10T12:01:13;18.15;;;12.32;;
39584;SDS011;25278;53.674;10.014;2022-12-10T12:06:30;18.35;;;15.57;;
39584;SDS011;25278;53.674;10.014;2022-12-10T12:09:23;15.63;;;12.40;;
39584;SDS011;25278;53.674;10.014;2022-12-10T12:14:58;16.02;;;12.63;;
39584;SDS011;25278;53.674;10.014;2022-12-10T12:17:28;14.43;;;11.88;;
39584;SDS011;25278;53.674;10.014;2022-12-10T12:19:58;18.77;;;14.20;;
39584;SDS011;25278;53.674;10.014;2022-12-10T12:22:32;19.75;;;14.65;;
39584;SDS011;25278;53.674;10.014;2022-12-10T12:25:06;15.93;;;12.52;;
39584;SDS011;25278;53.674;10.014;2022-12-10T12:27:43;15.07;;;11.95;;
39584;SDS011;25278;53.674;10.014;2022-12-10T12:30:14;14.25;;;12.00;;
39584;SDS011;25278;53.674;10.014;2022-12-10T12:32:49;14.43;;;11.60;;
39584;SDS011;25278;53.674;10.014;2022-12-10T12:37:59;17.63;;;13.27;;
39584;SDS011;25278;53.674;10.014;2022-12-10T12:40:36;18.45;;;12.38;;
39584;SDS011;25278;53.674;10.014;2022-12-10T12:43:15;15.10;;;11.70;;
39584;SDS011;25278;53.674;10.014;2022-12-10T12:45:47;16.38;;;12.63;;
39584;SDS011;25278;53.674;10.014;2022-12-10T12:48:19;17.17;;;13.95;;
39584;SDS011;25278;53.674;10.014;2022-12-10T12:50:49;22.17;;;16.42;;
39584;SDS011;25278;53.674;10.014;2022-12-10T12:53:17;17.83;;;14.15;;
39584;SDS011;25278;53.674;10.014;2022-12-10T13:00:37;14.73;;;12.60;;
39584;SDS011;25278;53.674;10.014;2022-12-10T13:03:17;17.10;;;12.15;;
39584;SDS011;25278;53.674;10.014;2022-12-10T13:05:46;17.30;;;12.65;;
39584;SDS011;25278;53.674;10.014;2022-12-10T13:10:45;17.42;;;13.43;;
39584;SDS011;25278;53.674;10.014;2022-12-10T13:13:22;19.63;;;13.82;;
39584;SDS011;25278;53.674;10.014;2022-12-10T13:15:50;15.93;;;13.23;;
39584;SDS011;25278;53.674;10.014;2022-12-10T13:36:28;16.80;;;13.13;;
39584;SDS011;25278;53.674;10.014;2022-12-10T13:45:35;18.05;;;14.10;;
39584;SDS011;25278;53.674;10.014;2022-12-10T13:47:48;17.08;;;13.13;;
39584;SDS011;25278;53.674;10.014;2022-12-10T13:50:18;17.30;;;13.68;;
39584;SDS011;25278;53.674;10.014;2022-12-10T13:55:33;19.48;;;14.63;;
39584;SDS011;25278;53.674;10.014;2022-12-10T13:58:08;21.15;;;15.75;;
39584;SDS011;25278;53.674;10.014;2022-12-10T14:01:05;19.23;;;14.85;;
39584;SDS011;25278;53.674;10.014;2022-12-10T14:06:33;22.83;;;18.38;;
39584;SDS011;25278;53.674;10.014;2022-12-10T14:09:02;21.98;;;16.73;;
39584;SDS011;25278;53.674;10.014;2022-12-10T14:11:35;24.75;;;17.58;;
39584;SDS011;25278;53.674;10.014;2022-12-10T14:14:04;22.42;;;17.63;;
39584;SDS011;25278;53.674;10.014;2022-12-10T14:16:31;22.63;;;17.10;;
39584;SDS011;25278;53.674;10.014;2022-12-10T14:19:01;23.25;;;17.77;;
39584;SDS011;25278;53.674;10.014;2022-12-10T14:21:35;26.58;;;18.25;;
39584;SDS011;25278;53.674;10.014;2022-12-10T14:24:03;23.90;;;18.25;;
39584;SDS011;25278;53.674;10.014;2022-12-10T14:26:31;26.15;;;19.33;;
39584;SDS011;25278;53.674;10.014;2022-12-10T14:29:01;21.20;;;16.92;;
39584;SDS011;25278;53.674;10.014;2022-12-10T14:31:32;23.35;;;17.85;;
39584;SDS011;25278;53.674;10.014;2022-12-10T14:34:00;24.63;;;17.90;;
39584;SDS011;25278;53.674;10.014;2022-12-10T14:36:28;23.70;;;17.80;;
39584;SDS011;25278;53.674;10.014;2022-12-10T14:38:55;24.02;;;17.90;;
39584;SDS011;25278;53.674;10.014;2022-12-10T14:41:21;22.67;;;17.65;;
39584;SDS011;25278;53.674;10.014;2022-12-10T14:43:48;25.15;;;19.50;;
39584;SDS011;25278;53.674;10.014;2022-12-10T14:46:16;27.15;;;18.95;;
39584;SDS011;25278;53.674;10.014;2022-12-10T14:48:45;23.30;;;18.33;;
39584;SDS011;25278;53.674;10.014;2022-12-10T14:51:13;23.30;;;18.52;;
39584;SDS011;25278;53.674;10.014;2022-12-10T14:53:40;26.35;;;17.10;;
39584;SDS011;25278;53.674;10.014;2022-12-10T14:56:06;21.75;;;17.40;;
39584;SDS011;25278;53.674;10.014;2022-12-10T14:58:38;19.55;;;14.63;;
39584;SDS011;25278;53.674;10.014;2022-12-10T15:01:29;17.88;;;13.95;;
39584;SDS011;25278;53.674;10.014;2022-12-10T15:04:01;15.10;;;12.35;;
39584;SDS011;25278;53.674;10.014;2022-12-10T15:06:28;16.65;;;11.90;;
39584;SDS011;25278;53.674;10.014;2022-12-10T15:08:59;12.95;;;11.30;;
39584;SDS011;25278;53.674;10.014;2022-12-10T15:11:25;16.30;;;11.88;;
39584;SDS011;25278;53.674;10.014;2022-12-10T15:13:53;15.52;;;11.88;;
39584;SDS011;25278;53.674;10.014;2022-12-10T15:19:46;14.48;;;11.20;;
39584;SDS011;25278;53.674;10.014;2022-12-10T15:21:58;16.02;;;12.20;;
39584;SDS011;25278;53.674;10.014;2022-12-10T15:24:41;16.70;;;12.85;;
39584;SDS011;25278;53.674;10.014;2022-12-10T15:27:14;17.10;;;12.75;;
39584;SDS011;25278;53.674;10.014;2022-12-10T15:29:41;17.65;;;13.55;;
39584;SDS011;25278;53.674;10.014;2022-12-10T15:32:13;16.67;;;13.85;;
39584;SDS011;25278;53.674;10.014;2022-12-10T15:35:15;18.10;;;13.93;;
39584;SDS011;25278;53.674;10.014;2022-12-10T15:37:39;21.63;;;16.17;;
39584;SDS011;25278;53.674;10.014;2022-12-10T15:40:19;20.13;;;13.93;;
39584;SDS011;25278;53.674;10.014;2022-12-10T15:42:51;15.40;;;12.43;;
39584;SDS011;25278;53.674;10.014;2022-12-10T15:45:36;16.15;;;13.40;;
39584;SDS011;25278;53.674;10.014;2022-12-10T15:48:06;16.75;;;13.52;;
39584;SDS011;25278;53.674;10.014;2022-12-10T15:50:33;15.85;;;12.40;;
39584;SDS011;25278;53.674;10.014;2022-12-10T15:52:59;14.57;;;11.80;;
39584;SDS011;25278;53.674;10.014;2022-12-10T15:55:25;15.27;;;11.90;;
39584;SDS011;25278;53.674;10.014;2022-12-10T15:57:50;13.23;;;11.80;;
39584;SDS011;25278;53.674;10.014;2022-12-10T16:00:20;15.40;;;12.32;;
39584;SDS011;25278;53.674;10.014;2022-12-10T16:02:51;13.80;;;12.02;;